sensor_id;sensor_type;location;lat;lon;timestamp;P1;durP1;ratioP1;P2;durP2;ratioP2
19414;SDS011;9843;48.882;12.592;2022-09-12T00:00:27;7.57;;;6.90;;
19414;SDS011;9843;48.882;12.592;2022-09-12T00:02:55;8.17;;;7.37;;
19414;SDS011;9843;48.882;12.592;2022-09-12T00:05:23;9.40;;;8.43;;
19414;SDS011;9843;48.882;12.592;2022-09-12T00:07:51;8.37;;;7.57;;
19414;SDS011;9843;48.882;12.592;2022-09-12T00:10:18;8.47;;;7.67;;
19414;SDS011;9843;48.882;12.592;2022-09-12T00:12:44;11.73;;;8.53;;
19414;SDS011;9843;48.882;12.592;2022-09-12T00:15:11;8.10;;;7.40;;
19414;SDS011;9843;48.882;12.592;2022-09-12T00:17:39;9.77;;;8.03;;
19414;SDS011;9843;48.882;12.592;2022-09-12T00:20:07;9.23;;;8.30;;
19414;SDS011;9843;48.882;12.592;2022-09-12T00:22:35;9.13;;;8.23;;
19414;SDS011;9843;48.882;12.592;2022-09-12T00:25:03;9.43;;;8.43;;
19414;SDS011;9843;48.882;12.592;2022-09-12T00:27:30;8.93;;;8.03;;
19414;SDS011;9843;48.882;12.592;2022-09-12T00:29:57;8.87;;;7.63;;
19414;SDS011;9843;48.882;12.592;2022-09-12T00:32:24;8.87;;;7.97;;
19414;SDS011;9843;48.882;12.592;2022-09-12T00:34:52;8.57;;;7.77;;
19414;SDS011;9843;48.882;12.592;2022-09-12T00:37:19;8.00;;;7.40;;
19414;SDS011;9843;48.882;12.592;2022-09-12T00:39:46;9.23;;;8.43;;
19414;SDS011;9843;48.882;12.592;2022-09-12T00:42:12;8.60;;;7.70;;
19414;SDS011;9843;48.882;12.592;2022-09-12T00:44:43;8.17;;;7.47;;
19414;SDS011;9843;48.882;12.592;2022-09-12T00:47:15;9.43;;;8.53;;
19414;SDS011;9843;48.882;12.592;2022-09-12T00:49:47;8.40;;;7.60;;
19414;SDS011;9843;48.882;12.592;2022-09-12T00:52:20;8.40;;;7.60;;
19414;SDS011;9843;48.882;12.592;2022-09-12T00:54:51;8.03;;;7.30;;
19414;SDS011;9843;48.882;12.592;2022-09-12T00:57:22;12.63;;;9.63;;
19414;SDS011;9843;48.882;12.592;2022-09-12T00:59:55;9.80;;;8.80;;
19414;SDS011;9843;48.882;12.592;2022-09-12T01:02:25;8.40;;;7.60;;
19414;SDS011;9843;48.882;12.592;2022-09-12T01:04:53;11.03;;;9.60;;
19414;SDS011;9843;48.882;12.592;2022-09-12T01:07:21;10.33;;;9.17;;
19414;SDS011;9843;48.882;12.592;2022-09-12T01:09:48;12.57;;;10.13;;
19414;SDS011;9843;48.882;12.592;2022-09-12T01:12:15;14.07;;;11.20;;
19414;SDS011;9843;48.882;12.592;2022-09-12T01:14:42;9.90;;;9.03;;
19414;SDS011;9843;48.882;12.592;2022-09-12T01:17:10;10.40;;;9.00;;
19414;SDS011;9843;48.882;12.592;2022-09-12T01:22:53;11.67;;;10.57;;
19414;SDS011;9843;48.882;12.592;2022-09-12T01:25:36;10.60;;;9.50;;
19414;SDS011;9843;48.882;12.592;2022-09-12T01:28:18;12.83;;;11.50;;
19414;SDS011;9843;48.882;12.592;2022-09-12T01:31:00;10.77;;;9.87;;
19414;SDS011;9843;48.882;12.592;2022-09-12T01:33:33;12.47;;;11.17;;
19414;SDS011;9843;48.882;12.592;2022-09-12T01:38:57;14.33;;;10.93;;
19414;SDS011;9843;48.882;12.592;2022-09-12T01:41:27;12.60;;;9.60;;
19414;SDS011;9843;48.882;12.592;2022-09-12T01:44:00;11.37;;;10.30;;
19414;SDS011;9843;48.882;12.592;2022-09-12T01:46:38;10.27;;;9.37;;
19414;SDS011;9843;48.882;12.592;2022-09-12T01:49:11;13.37;;;11.87;;
19414;SDS011;9843;48.882;12.592;2022-09-12T01:51:43;14.40;;;10.50;;
19414;SDS011;9843;48.882;12.592;2022-09-12T01:54:18;11.47;;;10.23;;
19414;SDS011;9843;48.882;12.592;2022-09-12T01:56:50;11.90;;;10.70;;
19414;SDS011;9843;48.882;12.592;2022-09-12T01:59:22;11.20;;;10.20;;
19414;SDS011;9843;48.882;12.592;2022-09-12T02:01:54;10.80;;;9.80;;
19414;SDS011;9843;48.882;12.592;2022-09-12T02:04:27;12.40;;;11.07;;
19414;SDS011;9843;48.882;12.592;2022-09-12T02:06:56;12.67;;;11.20;;
19414;SDS011;9843;48.882;12.592;2022-09-12T02:09:28;11.37;;;10.37;;
19414;SDS011;9843;48.882;12.592;2022-09-12T02:11:59;10.17;;;9.20;;
19414;SDS011;9843;48.882;12.592;2022-09-12T02:14:29;12.57;;;11.47;;
19414;SDS011;9843;48.882;12.592;2022-09-12T02:17:05;13.27;;;11.50;;
19414;SDS011;9843;48.882;12.592;2022-09-12T02:19:38;11.70;;;10.60;;
19414;SDS011;9843;48.882;12.592;2022-09-12T02:22:10;11.63;;;10.50;;
19414;SDS011;9843;48.882;12.592;2022-09-12T02:24:41;13.20;;;11.43;;
19414;SDS011;9843;48.882;12.592;2022-09-12T02:27:12;13.83;;;11.37;;
19414;SDS011;9843;48.882;12.592;2022-09-12T02:29:41;12.20;;;11.00;;
19414;SDS011;9843;48.882;12.592;2022-09-12T02:32:11;14.57;;;13.27;;
19414;SDS011;9843;48.882;12.592;2022-09-12T02:34:46;12.37;;;11.17;;
19414;SDS011;9843;48.882;12.592;2022-09-12T02:37:20;12.53;;;11.30;;
19414;SDS011;9843;48.882;12.592;2022-09-12T02:39:50;12.87;;;11.77;;
19414;SDS011;9843;48.882;12.592;2022-09-12T02:42:19;15.30;;;12.47;;
19414;SDS011;9843;48.882;12.592;2022-09-12T02:44:46;13.73;;;11.50;;
19414;SDS011;9843;48.882;12.592;2022-09-12T02:47:16;13.47;;;12.07;;
19414;SDS011;9843;48.882;12.592;2022-09-12T02:49:45;13.43;;;12.13;;
19414;SDS011;9843;48.882;12.592;2022-09-12T02:52:12;13.90;;;12.50;;
19414;SDS011;9843;48.882;12.592;2022-09-12T02:54:39;14.87;;;13.37;;
19414;SDS011;9843;48.882;12.592;2022-09-12T02:57:13;13.63;;;12.33;;
19414;SDS011;9843;48.882;12.592;2022-09-12T02:59:41;16.70;;;14.80;;
19414;SDS011;9843;48.882;12.592;2022-09-12T03:02:12;17.07;;;15.23;;
19414;SDS011;9843;48.882;12.592;2022-09-12T03:04:54;21.07;;;15.87;;
19414;SDS011;9843;48.882;12.592;2022-09-12T03:10:39;12.53;;;10.93;;
19414;SDS011;9843;48.882;12.592;2022-09-12T03:13:19;13.97;;;10.10;;
19414;SDS011;9843;48.882;12.592;2022-09-12T03:15:52;11.57;;;10.57;;
19414;SDS011;9843;48.882;12.592;2022-09-12T03:18:42;11.43;;;10.43;;
19414;SDS011;9843;48.882;12.592;2022-09-12T03:21:17;12.03;;;10.80;;
19414;SDS011;9843;48.882;12.592;2022-09-12T03:23:53;14.73;;;13.23;;
19414;SDS011;9843;48.882;12.592;2022-09-12T03:26:29;21.43;;;15.77;;
19414;SDS011;9843;48.882;12.592;2022-09-12T03:29:00;15.70;;;14.03;;
19414;SDS011;9843;48.882;12.592;2022-09-12T03:31:29;22.03;;;16.93;;
19414;SDS011;9843;48.882;12.592;2022-09-12T03:33:57;44.73;;;17.57;;
19414;SDS011;9843;48.882;12.592;2022-09-12T03:36:25;26.90;;;16.80;;
19414;SDS011;9843;48.882;12.592;2022-09-12T03:38:53;15.27;;;13.77;;
19414;SDS011;9843;48.882;12.592;2022-09-12T03:41:20;27.30;;;17.93;;
19414;SDS011;9843;48.882;12.592;2022-09-12T03:43:47;16.40;;;14.50;;
19414;SDS011;9843;48.882;12.592;2022-09-12T03:46:14;18.53;;;14.30;;
19414;SDS011;9843;48.882;12.592;2022-09-12T03:48:41;31.20;;;16.47;;
19414;SDS011;9843;48.882;12.592;2022-09-12T03:51:09;22.27;;;16.83;;
19414;SDS011;9843;48.882;12.592;2022-09-12T03:53:36;21.07;;;16.00;;
19414;SDS011;9843;48.882;12.592;2022-09-12T03:56:04;23.90;;;18.27;;
19414;SDS011;9843;48.882;12.592;2022-09-12T03:58:32;22.13;;;18.03;;
19414;SDS011;9843;48.882;12.592;2022-09-12T04:01:00;20.63;;;18.37;;
19414;SDS011;9843;48.882;12.592;2022-09-12T04:03:31;22.00;;;19.63;;
19414;SDS011;9843;48.882;12.592;2022-09-12T04:05:58;28.27;;;16.67;;
19414;SDS011;9843;48.882;12.592;2022-09-12T04:08:26;78.17;;;19.90;;
19414;SDS011;9843;48.882;12.592;2022-09-12T04:10:53;17.33;;;15.53;;
19414;SDS011;9843;48.882;12.592;2022-09-12T04:13:19;21.33;;;15.23;;
19414;SDS011;9843;48.882;12.592;2022-09-12T04:15:54;50.97;;;19.27;;
19414;SDS011;9843;48.882;12.592;2022-09-12T04:18:22;28.73;;;17.67;;
19414;SDS011;9843;48.882;12.592;2022-09-12T04:20:48;26.33;;;15.77;;
19414;SDS011;9843;48.882;12.592;2022-09-12T04:23:15;23.13;;;15.10;;
19414;SDS011;9843;48.882;12.592;2022-09-12T04:25:44;18.30;;;15.60;;
19414;SDS011;9843;48.882;12.592;2022-09-12T04:28:19;16.87;;;14.97;;
19414;SDS011;9843;48.882;12.592;2022-09-12T04:30:46;27.73;;;18.93;;
19414;SDS011;9843;48.882;12.592;2022-09-12T04:33:13;63.47;;;18.03;;
19414;SDS011;9843;48.882;12.592;2022-09-12T04:35:39;16.83;;;15.03;;
19414;SDS011;9843;48.882;12.592;2022-09-12T04:38:07;19.53;;;14.13;;
19414;SDS011;9843;48.882;12.592;2022-09-12T04:40:33;16.43;;;14.30;;
19414;SDS011;9843;48.882;12.592;2022-09-12T04:43:02;17.10;;;13.10;;
19414;SDS011;9843;48.882;12.592;2022-09-12T04:45:30;49.13;;;17.67;;
19414;SDS011;9843;48.882;12.592;2022-09-12T04:47:56;41.60;;;16.30;;
19414;SDS011;9843;48.882;12.592;2022-09-12T04:50:23;27.80;;;16.47;;
19414;SDS011;9843;48.882;12.592;2022-09-12T04:52:50;34.13;;;15.43;;
19414;SDS011;9843;48.882;12.592;2022-09-12T04:55:17;26.50;;;17.67;;
19414;SDS011;9843;48.882;12.592;2022-09-12T04:57:44;27.83;;;18.00;;
19414;SDS011;9843;48.882;12.592;2022-09-12T05:00:12;26.13;;;17.27;;
19414;SDS011;9843;48.882;12.592;2022-09-12T05:02:39;15.93;;;14.07;;
19414;SDS011;9843;48.882;12.592;2022-09-12T05:05:07;15.87;;;14.07;;
19414;SDS011;9843;48.882;12.592;2022-09-12T05:07:35;17.03;;;14.03;;
19414;SDS011;9843;48.882;12.592;2022-09-12T05:10:02;20.57;;;15.13;;
19414;SDS011;9843;48.882;12.592;2022-09-12T05:12:29;41.90;;;18.00;;
19414;SDS011;9843;48.882;12.592;2022-09-12T05:14:56;16.87;;;14.77;;
19414;SDS011;9843;48.882;12.592;2022-09-12T05:17:24;18.70;;;15.20;;
19414;SDS011;9843;48.882;12.592;2022-09-12T05:19:51;44.90;;;15.77;;
19414;SDS011;9843;48.882;12.592;2022-09-12T05:22:18;83.90;;;19.80;;
19414;SDS011;9843;48.882;12.592;2022-09-12T05:24:44;18.53;;;15.70;;
19414;SDS011;9843;48.882;12.592;2022-09-12T05:27:12;20.03;;;15.17;;
19414;SDS011;9843;48.882;12.592;2022-09-12T05:29:39;23.47;;;16.17;;
19414;SDS011;9843;48.882;12.592;2022-09-12T05:32:07;16.40;;;13.83;;
19414;SDS011;9843;48.882;12.592;2022-09-12T05:34:37;21.20;;;15.20;;
19414;SDS011;9843;48.882;12.592;2022-09-12T05:37:05;29.63;;;19.50;;
19414;SDS011;9843;48.882;12.592;2022-09-12T05:39:32;15.90;;;14.13;;
19414;SDS011;9843;48.882;12.592;2022-09-12T05:41:58;18.77;;;14.77;;
19414;SDS011;9843;48.882;12.592;2022-09-12T05:44:26;28.60;;;15.87;;
19414;SDS011;9843;48.882;12.592;2022-09-12T05:46:52;15.07;;;12.30;;
19414;SDS011;9843;48.882;12.592;2022-09-12T05:49:19;28.67;;;16.67;;
19414;SDS011;9843;48.882;12.592;2022-09-12T05:51:47;15.47;;;13.80;;
19414;SDS011;9843;48.882;12.592;2022-09-12T05:54:15;30.87;;;16.50;;
19414;SDS011;9843;48.882;12.592;2022-09-12T05:56:45;45.87;;;17.37;;
19414;SDS011;9843;48.882;12.592;2022-09-12T05:59:13;22.20;;;14.47;;
19414;SDS011;9843;48.882;12.592;2022-09-12T06:01:42;37.67;;;17.77;;
19414;SDS011;9843;48.882;12.592;2022-09-12T06:04:08;18.73;;;14.77;;
19414;SDS011;9843;48.882;12.592;2022-09-12T06:06:37;43.23;;;15.60;;
19414;SDS011;9843;48.882;12.592;2022-09-12T06:09:10;17.13;;;13.67;;
19414;SDS011;9843;48.882;12.592;2022-09-12T06:11:38;54.33;;;15.70;;
19414;SDS011;9843;48.882;12.592;2022-09-12T06:14:06;33.60;;;16.00;;
19414;SDS011;9843;48.882;12.592;2022-09-12T06:16:34;24.07;;;14.37;;
19414;SDS011;9843;48.882;12.592;2022-09-12T06:19:02;21.70;;;14.57;;
19414;SDS011;9843;48.882;12.592;2022-09-12T06:21:31;35.90;;;13.23;;
19414;SDS011;9843;48.882;12.592;2022-09-12T06:23:59;40.73;;;14.03;;
19414;SDS011;9843;48.882;12.592;2022-09-12T06:26:28;63.93;;;14.40;;
19414;SDS011;9843;48.882;12.592;2022-09-12T06:28:56;40.07;;;13.77;;
19414;SDS011;9843;48.882;12.592;2022-09-12T06:31:24;69.47;;;15.97;;
19414;SDS011;9843;48.882;12.592;2022-09-12T06:33:53;57.87;;;16.00;;
19414;SDS011;9843;48.882;12.592;2022-09-12T06:36:22;19.10;;;11.83;;
19414;SDS011;9843;48.882;12.592;2022-09-12T06:38:52;30.30;;;13.37;;
19414;SDS011;9843;48.882;12.592;2022-09-12T06:41:20;12.13;;;10.97;;
19414;SDS011;9843;48.882;12.592;2022-09-12T06:43:48;15.40;;;13.00;;
19414;SDS011;9843;48.882;12.592;2022-09-12T06:46:15;21.57;;;13.00;;
19414;SDS011;9843;48.882;12.592;2022-09-12T06:48:42;29.27;;;12.10;;
19414;SDS011;9843;48.882;12.592;2022-09-12T06:51:10;16.87;;;11.37;;
19414;SDS011;9843;48.882;12.592;2022-09-12T06:53:38;10.90;;;9.90;;
19414;SDS011;9843;48.882;12.592;2022-09-12T06:56:08;18.17;;;11.77;;
19414;SDS011;9843;48.882;12.592;2022-09-12T06:58:37;19.87;;;12.37;;
19414;SDS011;9843;48.882;12.592;2022-09-12T07:01:06;11.93;;;10.73;;
19414;SDS011;9843;48.882;12.592;2022-09-12T07:03:35;12.97;;;10.97;;
19414;SDS011;9843;48.882;12.592;2022-09-12T07:06:02;13.73;;;11.60;;
19414;SDS011;9843;48.882;12.592;2022-09-12T07:08:30;10.70;;;9.17;;
19414;SDS011;9843;48.882;12.592;2022-09-12T07:10:58;13.30;;;10.73;;
19414;SDS011;9843;48.882;12.592;2022-09-12T07:13:26;16.73;;;10.13;;
19414;SDS011;9843;48.882;12.592;2022-09-12T07:15:53;18.90;;;12.30;;
19414;SDS011;9843;48.882;12.592;2022-09-12T07:18:22;12.20;;;11.00;;
19414;SDS011;9843;48.882;12.592;2022-09-12T07:20:48;13.80;;;10.33;;
19414;SDS011;9843;48.882;12.592;2022-09-12T07:23:15;11.33;;;10.17;;
19414;SDS011;9843;48.882;12.592;2022-09-12T07:25:42;12.70;;;11.30;;
19414;SDS011;9843;48.882;12.592;2022-09-12T07:28:08;16.40;;;13.43;;
19414;SDS011;9843;48.882;12.592;2022-09-12T07:30:35;13.33;;;12.03;;
19414;SDS011;9843;48.882;12.592;2022-09-12T07:33:03;15.23;;;13.63;;
19414;SDS011;9843;48.882;12.592;2022-09-12T07:35:32;15.53;;;12.57;;
19414;SDS011;9843;48.882;12.592;2022-09-12T07:37:59;16.17;;;14.50;;
19414;SDS011;9843;48.882;12.592;2022-09-12T07:40:26;19.63;;;15.03;;
19414;SDS011;9843;48.882;12.592;2022-09-12T07:42:53;17.30;;;15.50;;
19414;SDS011;9843;48.882;12.592;2022-09-12T07:45:20;14.80;;;13.30;;
19414;SDS011;9843;48.882;12.592;2022-09-12T07:47:46;14.53;;;13.00;;
19414;SDS011;9843;48.882;12.592;2022-09-12T07:50:13;15.50;;;12.80;;
19414;SDS011;9843;48.882;12.592;2022-09-12T07:52:41;16.73;;;15.00;;
19414;SDS011;9843;48.882;12.592;2022-09-12T07:55:08;16.60;;;12.37;;
19414;SDS011;9843;48.882;12.592;2022-09-12T07:57:35;13.43;;;12.10;;
19414;SDS011;9843;48.882;12.592;2022-09-12T08:00:02;15.13;;;13.63;;
19414;SDS011;9843;48.882;12.592;2022-09-12T08:02:30;15.20;;;13.60;;
19414;SDS011;9843;48.882;12.592;2022-09-12T08:04:57;22.33;;;17.40;;
19414;SDS011;9843;48.882;12.592;2022-09-12T08:07:23;14.00;;;12.53;;
19414;SDS011;9843;48.882;12.592;2022-09-12T08:09:51;14.43;;;12.93;;
19414;SDS011;9843;48.882;12.592;2022-09-12T08:12:18;20.80;;;12.60;;
19414;SDS011;9843;48.882;12.592;2022-09-12T08:14:45;14.20;;;12.70;;
19414;SDS011;9843;48.882;12.592;2022-09-12T08:17:12;13.03;;;11.70;;
19414;SDS011;9843;48.882;12.592;2022-09-12T08:19:39;20.43;;;14.73;;
19414;SDS011;9843;48.882;12.592;2022-09-12T08:22:06;15.53;;;12.77;;
19414;SDS011;9843;48.882;12.592;2022-09-12T08:24:32;13.67;;;12.03;;
19414;SDS011;9843;48.882;12.592;2022-09-12T08:27:00;14.27;;;12.90;;
19414;SDS011;9843;48.882;12.592;2022-09-12T08:29:27;13.77;;;12.33;;
19414;SDS011;9843;48.882;12.592;2022-09-12T08:31:54;14.23;;;12.73;;
19414;SDS011;9843;48.882;12.592;2022-09-12T08:34:20;13.80;;;12.33;;
19414;SDS011;9843;48.882;12.592;2022-09-12T08:36:48;12.93;;;11.63;;
19414;SDS011;9843;48.882;12.592;2022-09-12T08:39:18;13.50;;;12.20;;
19414;SDS011;9843;48.882;12.592;2022-09-12T08:41:46;14.43;;;13.03;;
19414;SDS011;9843;48.882;12.592;2022-09-12T08:47:20;15.53;;;12.03;;
19414;SDS011;9843;48.882;12.592;2022-09-12T08:49:53;12.97;;;11.67;;
19414;SDS011;9843;48.882;12.592;2022-09-12T08:52:26;11.27;;;10.13;;
19414;SDS011;9843;48.882;12.592;2022-09-12T08:54:55;19.03;;;11.80;;
19414;SDS011;9843;48.882;12.592;2022-09-12T08:57:22;12.87;;;11.67;;
19414;SDS011;9843;48.882;12.592;2022-09-12T08:59:51;15.73;;;14.23;;
19414;SDS011;9843;48.882;12.592;2022-09-12T09:02:23;13.00;;;11.63;;
19414;SDS011;9843;48.882;12.592;2022-09-12T09:05:12;13.90;;;12.53;;
19414;SDS011;9843;48.882;12.592;2022-09-12T09:10:42;14.40;;;13.00;;
19414;SDS011;9843;48.882;12.592;2022-09-12T09:13:17;13.50;;;12.13;;
19414;SDS011;9843;48.882;12.592;2022-09-12T09:16:13;13.83;;;11.80;;
19414;SDS011;9843;48.882;12.592;2022-09-12T09:18:49;14.53;;;12.93;;
19414;SDS011;9843;48.882;12.592;2022-09-12T09:21:19;12.83;;;11.53;;
19414;SDS011;9843;48.882;12.592;2022-09-12T09:23:49;12.93;;;11.67;;
19414;SDS011;9843;48.882;12.592;2022-09-12T09:26:21;11.37;;;10.30;;
19414;SDS011;9843;48.882;12.592;2022-09-12T09:28:53;13.10;;;11.83;;
19414;SDS011;9843;48.882;12.592;2022-09-12T09:31:25;11.53;;;10.43;;
19414;SDS011;9843;48.882;12.592;2022-09-12T09:33:55;12.07;;;10.87;;
19414;SDS011;9843;48.882;12.592;2022-09-12T09:36:25;11.37;;;8.90;;
19414;SDS011;9843;48.882;12.592;2022-09-12T09:39:01;14.07;;;12.63;;
19414;SDS011;9843;48.882;12.592;2022-09-12T09:41:36;12.37;;;11.27;;
19414;SDS011;9843;48.882;12.592;2022-09-12T09:44:13;13.30;;;12.10;;
19414;SDS011;9843;48.882;12.592;2022-09-12T09:46:42;11.57;;;10.50;;
19414;SDS011;9843;48.882;12.592;2022-09-12T09:49:09;11.63;;;10.53;;
19414;SDS011;9843;48.882;12.592;2022-09-12T09:51:38;18.13;;;10.33;;
19414;SDS011;9843;48.882;12.592;2022-09-12T09:54:09;12.47;;;11.37;;
19414;SDS011;9843;48.882;12.592;2022-09-12T09:56:42;11.50;;;10.37;;
19414;SDS011;9843;48.882;12.592;2022-09-12T09:59:10;25.17;;;12.03;;
19414;SDS011;9843;48.882;12.592;2022-09-12T10:01:45;21.63;;;11.03;;
19414;SDS011;9843;48.882;12.592;2022-09-12T10:04:17;13.57;;;10.23;;
19414;SDS011;9843;48.882;12.592;2022-09-12T10:06:45;10.67;;;9.73;;
19414;SDS011;9843;48.882;12.592;2022-09-12T10:09:20;10.77;;;9.67;;
19414;SDS011;9843;48.882;12.592;2022-09-12T10:11:49;10.57;;;9.47;;
19414;SDS011;9843;48.882;12.592;2022-09-12T10:14:26;11.27;;;10.17;;
19414;SDS011;9843;48.882;12.592;2022-09-12T10:17:00;12.97;;;11.67;;
19414;SDS011;9843;48.882;12.592;2022-09-12T10:19:34;13.10;;;11.90;;
19414;SDS011;9843;48.882;12.592;2022-09-12T10:22:02;12.47;;;11.30;;
19414;SDS011;9843;48.882;12.592;2022-09-12T10:24:31;13.47;;;12.17;;
19414;SDS011;9843;48.882;12.592;2022-09-12T10:27:06;13.00;;;11.40;;
19414;SDS011;9843;48.882;12.592;2022-09-12T10:29:38;11.50;;;10.30;;
19414;SDS011;9843;48.882;12.592;2022-09-12T10:32:12;15.23;;;13.70;;
19414;SDS011;9843;48.882;12.592;2022-09-12T10:34:45;12.73;;;11.53;;
19414;SDS011;9843;48.882;12.592;2022-09-12T10:37:15;11.57;;;10.57;;
19414;SDS011;9843;48.882;12.592;2022-09-12T10:39:49;14.03;;;12.53;;
19414;SDS011;9843;48.882;12.592;2022-09-12T10:45:26;13.30;;;10.40;;
19414;SDS011;9843;48.882;12.592;2022-09-12T10:47:56;9.37;;;8.47;;
19414;SDS011;9843;48.882;12.592;2022-09-12T10:50:25;12.60;;;11.40;;
19414;SDS011;9843;48.882;12.592;2022-09-12T10:52:56;10.57;;;9.70;;
19414;SDS011;9843;48.882;12.592;2022-09-12T10:55:40;11.60;;;10.50;;
19414;SDS011;9843;48.882;12.592;2022-09-12T10:58:19;6.80;;;6.10;;
19414;SDS011;9843;48.882;12.592;2022-09-12T11:00:57;9.20;;;8.23;;
19414;SDS011;9843;48.882;12.592;2022-09-12T11:03:37;6.88;;;6.22;;
19414;SDS011;9843;48.882;12.592;2022-09-12T11:06:16;6.85;;;6.18;;
19414;SDS011;9843;48.882;12.592;2022-09-12T11:08:54;8.32;;;7.55;;
19414;SDS011;9843;48.882;12.592;2022-09-12T11:11:38;9.57;;;8.63;;
19414;SDS011;9843;48.882;12.592;2022-09-12T11:14:22;6.00;;;5.40;;
19414;SDS011;9843;48.882;12.592;2022-09-12T11:17:04;11.00;;;7.30;;
19414;SDS011;9843;48.882;12.592;2022-09-12T11:19:54;8.88;;;7.85;;
19414;SDS011;9843;48.882;12.592;2022-09-12T11:22:51;8.55;;;7.75;;
19414;SDS011;9843;48.882;12.592;2022-09-12T11:25:34;7.60;;;6.90;;
19414;SDS011;9843;48.882;12.592;2022-09-12T11:28:16;5.00;;;4.60;;
19414;SDS011;9843;48.882;12.592;2022-09-12T11:30:56;3.45;;;3.15;;
19414;SDS011;9843;48.882;12.592;2022-09-12T11:33:47;8.73;;;5.38;;
19414;SDS011;9843;48.882;12.592;2022-09-12T11:36:22;5.45;;;5.05;;
19414;SDS011;9843;48.882;12.592;2022-09-12T11:38:59;5.07;;;4.68;;
19414;SDS011;9843;48.882;12.592;2022-09-12T11:41:29;2.70;;;2.38;;
19414;SDS011;9843;48.882;12.592;2022-09-12T11:43:59;7.28;;;6.50;;
19414;SDS011;9843;48.882;12.592;2022-09-12T11:46:33;11.95;;;7.43;;
19414;SDS011;9843;48.882;12.592;2022-09-12T11:49:04;6.03;;;5.50;;
19414;SDS011;9843;48.882;12.592;2022-09-12T11:51:43;4.43;;;4.03;;
19414;SDS011;9843;48.882;12.592;2022-09-12T11:54:17;3.97;;;3.67;;
19414;SDS011;9843;48.882;12.592;2022-09-12T11:56:48;3.80;;;3.35;;
19414;SDS011;9843;48.882;12.592;2022-09-12T11:59:25;3.28;;;3.05;;
19414;SDS011;9843;48.882;12.592;2022-09-12T12:01:58;8.70;;;4.45;;
19414;SDS011;9843;48.882;12.592;2022-09-12T12:04:29;6.88;;;5.00;;
19414;SDS011;9843;48.882;12.592;2022-09-12T12:07:04;4.65;;;3.45;;
19414;SDS011;9843;48.882;12.592;2022-09-12T12:09:32;3.63;;;3.03;;
19414;SDS011;9843;48.882;12.592;2022-09-12T12:12:00;4.15;;;3.75;;
19414;SDS011;9843;48.882;12.592;2022-09-12T12:14:35;6.65;;;3.25;;
19414;SDS011;9843;48.882;12.592;2022-09-12T12:17:11;2.75;;;2.55;;
19414;SDS011;9843;48.882;12.592;2022-09-12T12:19:40;3.25;;;2.85;;
19414;SDS011;9843;48.882;12.592;2022-09-12T12:22:13;1.90;;;1.73;;
19414;SDS011;9843;48.882;12.592;2022-09-12T12:24:53;2.85;;;1.92;;
19414;SDS011;9843;48.882;12.592;2022-09-12T12:27:24;1.52;;;1.42;;
19414;SDS011;9843;48.882;12.592;2022-09-12T12:36:30;2.40;;;2.13;;
19414;SDS011;9843;48.882;12.592;2022-09-12T12:51:36;3.70;;;2.10;;
19414;SDS011;9843;48.882;12.592;2022-09-12T12:54:33;2.50;;;2.30;;
19414;SDS011;9843;48.882;12.592;2022-09-12T12:57:23;6.97;;;2.55;;
19414;SDS011;9843;48.882;12.592;2022-09-12T12:59:54;1.92;;;1.73;;
19414;SDS011;9843;48.882;12.592;2022-09-12T13:02:26;3.75;;;2.42;;
19414;SDS011;9843;48.882;12.592;2022-09-12T13:04:57;5.03;;;3.22;;
19414;SDS011;9843;48.882;12.592;2022-09-12T13:07:29;5.47;;;3.03;;
19414;SDS011;9843;48.882;12.592;2022-09-12T13:09:58;4.63;;;3.70;;
19414;SDS011;9843;48.882;12.592;2022-09-12T13:12:27;2.42;;;2.22;;
19414;SDS011;9843;48.882;12.592;2022-09-12T13:14:57;2.85;;;2.38;;
19414;SDS011;9843;48.882;12.592;2022-09-12T13:17:26;2.85;;;1.80;;
19414;SDS011;9843;48.882;12.592;2022-09-12T13:20:13;2.45;;;2.25;;
19414;SDS011;9843;48.882;12.592;2022-09-12T13:22:45;3.53;;;2.15;;
19414;SDS011;9843;48.882;12.592;2022-09-12T13:27:59;1.83;;;1.73;;
19414;SDS011;9843;48.882;12.592;2022-09-12T13:30:32;3.53;;;2.72;;
19414;SDS011;9843;48.882;12.592;2022-09-12T13:33:09;4.03;;;2.15;;
19414;SDS011;9843;48.882;12.592;2022-09-12T13:35:52;2.65;;;2.45;;
19414;SDS011;9843;48.882;12.592;2022-09-12T13:38:43;2.88;;;1.77;;
19414;SDS011;9843;48.882;12.592;2022-09-12T13:41:21;4.80;;;2.95;;
19414;SDS011;9843;48.882;12.592;2022-09-12T13:44:02;7.00;;;2.28;;
19414;SDS011;9843;48.882;12.592;2022-09-12T13:46:33;4.10;;;2.60;;
19414;SDS011;9843;48.882;12.592;2022-09-12T13:49:04;3.25;;;2.88;;
19414;SDS011;9843;48.882;12.592;2022-09-12T13:51:37;2.92;;;2.40;;
19414;SDS011;9843;48.882;12.592;2022-09-12T13:54:04;7.03;;;2.63;;
19414;SDS011;9843;48.882;12.592;2022-09-12T13:56:31;2.63;;;2.25;;
19414;SDS011;9843;48.882;12.592;2022-09-12T13:58:59;8.70;;;2.10;;
19414;SDS011;9843;48.882;12.592;2022-09-12T14:01:36;2.35;;;2.15;;
19414;SDS011;9843;48.882;12.592;2022-09-12T14:04:09;2.00;;;1.85;;
19414;SDS011;9843;48.882;12.592;2022-09-12T14:07:01;4.88;;;2.70;;
19414;SDS011;9843;48.882;12.592;2022-09-12T14:09:36;3.47;;;2.95;;
19414;SDS011;9843;48.882;12.592;2022-09-12T14:12:05;3.03;;;2.83;;
19414;SDS011;9843;48.882;12.592;2022-09-12T14:14:42;4.15;;;2.65;;
19414;SDS011;9843;48.882;12.592;2022-09-12T14:17:16;4.18;;;2.40;;
19414;SDS011;9843;48.882;12.592;2022-09-12T14:19:47;5.47;;;3.15;;
19414;SDS011;9843;48.882;12.592;2022-09-12T14:22:15;3.03;;;2.23;;
19414;SDS011;9843;48.882;12.592;2022-09-12T14:24:43;2.67;;;2.45;;
19414;SDS011;9843;48.882;12.592;2022-09-12T14:27:14;6.27;;;2.53;;
19414;SDS011;9843;48.882;12.592;2022-09-12T14:29:43;3.77;;;3.07;;
19414;SDS011;9843;48.882;12.592;2022-09-12T14:32:14;6.60;;;2.70;;
19414;SDS011;9843;48.882;12.592;2022-09-12T14:37:30;2.27;;;2.13;;
19414;SDS011;9843;48.882;12.592;2022-09-12T14:39:57;2.87;;;2.57;;
19414;SDS011;9843;48.882;12.592;2022-09-12T14:42:25;2.53;;;2.33;;
19414;SDS011;9843;48.882;12.592;2022-09-12T14:44:56;3.60;;;2.53;;
19414;SDS011;9843;48.882;12.592;2022-09-12T14:47:27;4.93;;;2.70;;
19414;SDS011;9843;48.882;12.592;2022-09-12T14:50:00;2.30;;;2.10;;
19414;SDS011;9843;48.882;12.592;2022-09-12T14:52:28;3.10;;;2.30;;
19414;SDS011;9843;48.882;12.592;2022-09-12T14:54:59;2.90;;;2.70;;
19414;SDS011;9843;48.882;12.592;2022-09-12T15:00:16;2.90;;;2.60;;
19414;SDS011;9843;48.882;12.592;2022-09-12T15:02:45;2.43;;;2.23;;
19414;SDS011;9843;48.882;12.592;2022-09-12T15:05:14;3.23;;;2.63;;
19414;SDS011;9843;48.882;12.592;2022-09-12T15:07:51;2.70;;;2.43;;
19414;SDS011;9843;48.882;12.592;2022-09-12T15:10:24;3.27;;;2.57;;
19414;SDS011;9843;48.882;12.592;2022-09-12T15:13:15;3.30;;;2.90;;
19414;SDS011;9843;48.882;12.592;2022-09-12T15:15:44;3.93;;;2.67;;
19414;SDS011;9843;48.882;12.592;2022-09-12T15:18:12;5.07;;;2.77;;
19414;SDS011;9843;48.882;12.592;2022-09-12T15:20:39;3.47;;;3.13;;
19414;SDS011;9843;48.882;12.592;2022-09-12T15:23:11;3.23;;;2.93;;
19414;SDS011;9843;48.882;12.592;2022-09-12T15:25:41;2.70;;;1.87;;
19414;SDS011;9843;48.882;12.592;2022-09-12T15:28:12;5.37;;;2.83;;
19414;SDS011;9843;48.882;12.592;2022-09-12T15:30:42;2.23;;;1.87;;
19414;SDS011;9843;48.882;12.592;2022-09-12T15:33:09;4.90;;;2.40;;
19414;SDS011;9843;48.882;12.592;2022-09-12T15:35:37;4.07;;;3.37;;
19414;SDS011;9843;48.882;12.592;2022-09-12T15:38:04;3.00;;;2.80;;